createdAt,value
2022-10-16T00:01:20.428Z,11.70
2022-10-16T00:03:47.392Z,10.50
2022-10-16T00:06:14.186Z,11.37
2022-10-16T00:08:40.997Z,10.67
2022-10-16T00:11:26.903Z,11.40
2022-10-16T00:13:55.992Z,11.03
2022-10-16T00:16:22.426Z,11.60
2022-10-16T00:18:48.972Z,11.53
2022-10-16T00:21:16.998Z,10.50
2022-10-16T00:23:43.833Z,11.23
2022-10-16T00:26:11.834Z,11.07
2022-10-16T00:28:38.864Z,10.73
2022-10-16T00:31:06.370Z,10.40
2022-10-16T00:33:32.864Z,9.90
2022-10-16T00:35:59.904Z,10.43
2022-10-16T00:38:26.953Z,10.87
2022-10-16T00:40:53.440Z,10.80
2022-10-16T00:43:35.262Z,10.07
2022-10-16T00:46:02.810Z,9.87
2022-10-16T00:48:29.836Z,10.57
2022-10-16T00:50:57.047Z,10.03
2022-10-16T00:53:24.438Z,10.23
2022-10-16T00:55:50.899Z,11.68
2022-10-16T00:58:17.434Z,10.90
2022-10-16T01:00:43.915Z,10.23
2022-10-16T01:03:28.399Z,10.37
2022-10-16T01:06:00.813Z,10.50
2022-10-16T01:08:34.028Z,9.90
2022-10-16T01:11:10.404Z,9.40
2022-10-16T01:13:41.845Z,9.50
2022-10-16T01:16:21.623Z,9.37
2022-10-16T01:18:53.267Z,9.43
2022-10-16T01:21:29.039Z,9.73
2022-10-16T01:24:12.705Z,9.40
2022-10-16T01:27:00.109Z,9.40
2022-10-16T01:29:30.460Z,10.00
2022-10-16T01:31:58.981Z,10.93
2022-10-16T01:34:33.622Z,10.63
2022-10-16T01:37:09.384Z,11.23
2022-10-16T01:39:37.344Z,10.13
2022-10-16T01:42:16.054Z,10.60
2022-10-16T01:44:43.459Z,10.70
2022-10-16T01:47:11.274Z,10.70
2022-10-16T01:49:39.736Z,10.53
2022-10-16T01:52:08.841Z,10.13
2022-10-16T01:54:36.825Z,10.87
2022-10-16T01:57:04.769Z,10.37
2022-10-16T01:59:32.603Z,11.13
2022-10-16T02:02:05.125Z,11.50
2022-10-16T02:04:37.312Z,11.27
2022-10-16T02:07:03.882Z,11.00
2022-10-16T02:09:31.274Z,10.80
2022-10-16T02:12:00.082Z,11.60
2022-10-16T02:14:27.332Z,12.10
2022-10-16T02:16:54.010Z,10.40
2022-10-16T02:19:21.927Z,12.63
2022-10-16T02:21:53.862Z,12.67
2022-10-16T02:24:33.622Z,12.63
2022-10-16T02:27:06.874Z,12.03
2022-10-16T02:29:34.921Z,12.13
2022-10-16T02:32:05.021Z,12.27
2022-10-16T02:34:32.998Z,10.90
2022-10-16T02:37:00.751Z,10.47
2022-10-16T02:39:28.019Z,10.97
2022-10-16T02:41:54.598Z,10.97
2022-10-16T02:44:21.105Z,10.57
2022-10-16T02:46:47.491Z,10.57
2022-10-16T02:49:13.987Z,10.60
2022-10-16T02:51:40.406Z,10.77
2022-10-16T02:54:06.985Z,10.73
2022-10-16T02:56:33.518Z,11.37
2022-10-16T02:59:00.135Z,10.57
2022-10-16T03:01:26.663Z,11.00
2022-10-16T03:03:53.336Z,10.87
2022-10-16T03:06:19.841Z,10.70
2022-10-16T03:08:46.313Z,11.10
2022-10-16T03:11:12.750Z,9.97
2022-10-16T03:13:39.229Z,10.87
2022-10-16T03:16:05.685Z,10.60
2022-10-16T03:18:32.233Z,10.50
2022-10-16T03:20:58.673Z,10.17
2022-10-16T03:23:25.243Z,10.53
2022-10-16T03:25:51.874Z,11.93
2022-10-16T03:28:18.543Z,10.17
2022-10-16T03:30:45.118Z,9.60
2022-10-16T03:33:11.677Z,8.87
2022-10-16T03:35:38.210Z,10.17
2022-10-16T03:38:04.901Z,10.40
2022-10-16T03:40:33.193Z,10.17
2022-10-16T03:42:59.871Z,11.00
2022-10-16T03:45:27.229Z,10.50
2022-10-16T03:47:53.665Z,9.90
2022-10-16T03:50:20.109Z,10.50
2022-10-16T03:52:46.620Z,10.20
2022-10-16T03:55:13.038Z,10.90
2022-10-16T03:57:39.476Z,10.20
2022-10-16T04:00:06.359Z,10.27
2022-10-16T04:02:38.709Z,9.70
2022-10-16T04:05:05.268Z,9.57
2022-10-16T04:07:31.789Z,9.83
2022-10-16T04:09:59.826Z,9.63
2022-10-16T04:12:27.088Z,10.30
2022-10-16T04:14:53.564Z,9.80
2022-10-16T04:17:20.579Z,10.03
2022-10-16T04:19:47.102Z,9.47
2022-10-16T04:22:14.212Z,11.07
2022-10-16T04:24:41.055Z,10.80
2022-10-16T04:27:07.498Z,11.10
2022-10-16T04:29:33.944Z,10.97
2022-10-16T04:32:00.384Z,11.00
2022-10-16T04:34:26.887Z,11.30
2022-10-16T04:36:53.382Z,10.83
2022-10-16T04:39:19.883Z,10.97
2022-10-16T04:41:46.380Z,10.40
2022-10-16T04:44:12.873Z,9.80
2022-10-16T04:46:39.358Z,10.17
2022-10-16T04:49:05.800Z,11.33
2022-10-16T04:51:32.410Z,10.80
2022-10-16T04:53:58.919Z,11.47
2022-10-16T04:56:25.605Z,11.20
2022-10-16T04:58:52.021Z,10.10
2022-10-16T05:01:18.534Z,10.40
2022-10-16T05:03:45.045Z,10.80
2022-10-16T05:06:11.468Z,11.07
2022-10-16T05:08:37.998Z,10.77
2022-10-16T05:11:04.648Z,10.70
2022-10-16T05:13:31.128Z,10.20
2022-10-16T05:15:58.216Z,10.27
2022-10-16T05:18:24.643Z,10.23
2022-10-16T05:20:51.150Z,11.73
2022-10-16T05:23:17.642Z,10.73
2022-10-16T05:25:44.039Z,11.37
2022-10-16T05:28:10.607Z,11.67
2022-10-16T05:30:38.109Z,11.47
2022-10-16T05:33:04.584Z,10.73
2022-10-16T05:35:31.051Z,11.37
2022-10-16T05:37:57.837Z,11.23
2022-10-16T05:40:24.447Z,10.73
2022-10-16T05:42:50.952Z,10.90
2022-10-16T05:45:17.429Z,10.57
2022-10-16T05:47:43.925Z,10.83
2022-10-16T05:50:10.374Z,11.17
2022-10-16T05:52:36.971Z,11.10
2022-10-16T05:55:03.724Z,12.00
2022-10-16T05:57:30.962Z,10.17
2022-10-16T05:59:57.574Z,11.67
2022-10-16T06:02:23.990Z,10.87
2022-10-16T06:04:52.238Z,11.17
2022-10-16T06:07:18.707Z,11.43
2022-10-16T06:09:45.157Z,11.73
2022-10-16T06:12:11.609Z,11.07
2022-10-16T06:14:38.084Z,11.20
2022-10-16T06:17:04.630Z,12.03
2022-10-16T06:19:32.481Z,11.00
2022-10-16T06:21:59.461Z,11.13
2022-10-16T06:24:26.308Z,12.07
2022-10-16T06:26:52.831Z,11.80
2022-10-16T06:29:19.333Z,11.47
2022-10-16T06:31:45.757Z,11.73
2022-10-16T06:34:12.573Z,11.43
2022-10-16T06:36:39.628Z,11.63
2022-10-16T06:39:06.439Z,10.83
2022-10-16T06:41:33.087Z,10.83
2022-10-16T06:44:08.896Z,11.20
2022-10-16T06:46:35.452Z,11.20
2022-10-16T06:49:01.942Z,11.73
2022-10-16T06:51:28.587Z,10.97
2022-10-16T06:54:04.136Z,11.60
2022-10-16T06:56:32.163Z,11.27
2022-10-16T06:58:59.024Z,12.50
2022-10-16T07:01:25.628Z,12.73
2022-10-16T07:03:52.507Z,12.50
2022-10-16T07:06:20.466Z,12.37
2022-10-16T07:08:47.488Z,12.23
2022-10-16T07:11:15.268Z,12.13
2022-10-16T07:13:43.285Z,13.13
2022-10-16T07:16:11.481Z,12.33
2022-10-16T07:18:39.984Z,12.40
2022-10-16T07:21:07.193Z,12.23
2022-10-16T07:23:33.754Z,12.03
2022-10-16T07:26:00.237Z,11.17
2022-10-16T07:28:27.195Z,12.63
2022-10-16T07:30:53.706Z,11.97
2022-10-16T07:33:20.329Z,12.73
2022-10-16T07:35:53.868Z,12.20
2022-10-16T07:38:21.440Z,11.70
2022-10-16T07:40:48.184Z,11.90
2022-10-16T07:43:15.285Z,11.47
2022-10-16T07:48:22.761Z,10.43
2022-10-16T07:50:49.393Z,9.83
2022-10-16T07:53:16.160Z,10.07
2022-10-16T07:55:42.780Z,8.50
2022-10-16T07:58:09.604Z,8.67
2022-10-16T08:00:37.342Z,8.37
2022-10-16T08:03:04.015Z,8.27
2022-10-16T08:05:31.113Z,8.17
2022-10-16T08:07:57.643Z,7.57
2022-10-16T08:10:25.731Z,7.63
2022-10-16T08:12:52.629Z,7.60
2022-10-16T08:15:19.356Z,7.00
2022-10-16T08:17:46.188Z,6.50
2022-10-16T08:20:12.587Z,6.23
2022-10-16T08:22:39.024Z,6.40
2022-10-16T08:25:05.652Z,6.27
2022-10-16T08:27:35.107Z,6.20
2022-10-16T08:30:01.540Z,5.93
2022-10-16T08:32:28.109Z,5.30
2022-10-16T08:34:54.534Z,5.57
2022-10-16T08:37:20.962Z,5.47
2022-10-16T08:39:47.485Z,5.30
2022-10-16T08:42:14.045Z,5.93
2022-10-16T08:44:55.157Z,5.40
2022-10-16T08:47:27.491Z,4.90
2022-10-16T08:49:58.021Z,5.10
2022-10-16T08:52:26.771Z,4.93
2022-10-16T08:54:55.109Z,4.73
2022-10-16T08:57:24.327Z,4.50
2022-10-16T08:59:51.241Z,4.63
2022-10-16T09:02:24.013Z,4.23
2022-10-16T09:04:59.747Z,4.27
2022-10-16T09:07:32.249Z,4.30
2022-10-16T09:10:10.753Z,4.20
2022-10-16T09:12:46.090Z,3.80
2022-10-16T09:15:19.025Z,3.73
2022-10-16T09:18:14.989Z,3.47
2022-10-16T09:20:52.432Z,3.23
2022-10-16T09:23:20.134Z,3.60
2022-10-16T09:25:48.755Z,3.17
2022-10-16T09:28:15.785Z,3.30
2022-10-16T09:30:42.480Z,3.20
2022-10-16T09:33:10.075Z,3.00
2022-10-16T09:35:40.864Z,3.00
2022-10-16T09:38:07.940Z,2.77
2022-10-16T09:40:36.515Z,2.93
2022-10-16T09:43:23.196Z,2.70
2022-10-16T09:46:03.680Z,2.47
2022-10-16T09:48:48.042Z,2.10
2022-10-16T09:51:22.833Z,1.90
2022-10-16T09:53:49.427Z,1.17
2022-10-16T09:56:23.857Z,1.10
2022-10-16T09:58:51.748Z,1.07
2022-10-16T10:01:18.229Z,1.10
2022-10-16T10:03:44.952Z,1.10
2022-10-16T10:06:18.197Z,1.30
2022-10-16T10:08:59.755Z,1.30
2022-10-16T10:11:39.500Z,1.00
2022-10-16T10:14:06.984Z,1.10
2022-10-16T10:16:33.412Z,1.13
2022-10-16T10:19:00.523Z,1.03
2022-10-16T10:21:26.973Z,1.10
2022-10-16T10:23:57.821Z,1.00
2022-10-16T10:26:28.996Z,0.87
2022-10-16T10:29:14.052Z,0.70
2022-10-16T10:31:55.692Z,0.70
2022-10-16T10:34:28.300Z,0.80
2022-10-16T10:37:19.910Z,0.70
2022-10-16T10:40:08.021Z,0.90
2022-10-16T10:42:43.122Z,1.03
2022-10-16T10:45:09.612Z,1.00
2022-10-16T10:47:54.934Z,1.00
2022-10-16T10:50:40.440Z,0.90
2022-10-16T10:53:19.613Z,0.90
2022-10-16T10:56:04.661Z,1.10
2022-10-16T10:58:50.985Z,0.83
2022-10-16T11:01:19.230Z,1.43
2022-10-16T11:04:04.488Z,5.60
2022-10-16T11:06:34.986Z,3.80
2022-10-16T11:09:01.643Z,1.20
2022-10-16T11:11:31.188Z,1.10
2022-10-16T11:14:03.898Z,0.93
2022-10-16T11:16:32.282Z,0.80
2022-10-16T11:19:10.779Z,1.80
2022-10-16T11:21:51.307Z,1.00
2022-10-16T11:24:22.855Z,0.70
2022-10-16T11:26:50.359Z,0.70
2022-10-16T11:29:21.110Z,0.67
2022-10-16T11:31:50.383Z,0.60
2022-10-16T11:34:30.791Z,0.70
2022-10-16T11:37:28.977Z,0.70
2022-10-16T11:39:58.867Z,0.77
2022-10-16T11:42:47.868Z,0.90
2022-10-16T11:45:23.249Z,1.20
2022-10-16T11:47:59.408Z,1.10
2022-10-16T11:50:44.517Z,0.83
2022-10-16T11:53:28.534Z,0.70
2022-10-16T11:55:55.026Z,0.77
2022-10-16T11:58:27.692Z,0.80
2022-10-16T12:00:57.676Z,0.80
2022-10-16T12:03:24.214Z,0.70
2022-10-16T12:05:50.670Z,0.70
2022-10-16T12:08:17.561Z,0.70
2022-10-16T12:10:46.722Z,0.80
2022-10-16T12:13:31.743Z,0.60
2022-10-16T12:16:13.254Z,0.80
2022-10-16T12:18:44.869Z,1.00
2022-10-16T12:21:14.413Z,0.70
2022-10-16T12:23:54.675Z,0.60
2022-10-16T12:26:32.425Z,0.63
2022-10-16T12:29:13.434Z,0.80
2022-10-16T12:31:49.736Z,1.10
2022-10-16T12:34:39.050Z,0.90
2022-10-16T12:37:12.481Z,0.90
2022-10-16T12:39:39.170Z,0.77
2022-10-16T12:42:19.307Z,0.80
2022-10-16T12:44:45.777Z,0.80
2022-10-16T12:47:21.318Z,0.90
2022-10-16T12:49:52.487Z,0.80
2022-10-16T12:52:27.042Z,0.77
2022-10-16T12:54:56.509Z,0.80
2022-10-16T12:57:26.057Z,0.70
2022-10-16T13:00:04.801Z,0.80
2022-10-16T13:02:43.260Z,0.70
2022-10-16T13:05:19.172Z,0.70
2022-10-16T13:08:04.410Z,0.80
2022-10-16T13:10:49.262Z,0.80
2022-10-16T13:13:21.801Z,0.70
2022-10-16T13:16:11.992Z,0.80
2022-10-16T13:18:57.340Z,0.70
2022-10-16T13:21:42.258Z,0.83
2022-10-16T13:24:09.303Z,0.70
2022-10-16T13:26:51.042Z,0.90
2022-10-16T13:29:17.686Z,0.80
2022-10-16T13:31:45.222Z,0.97
2022-10-16T13:34:16.966Z,1.00
2022-10-16T13:36:47.793Z,0.70
2022-10-16T13:39:25.089Z,0.90
2022-10-16T13:42:09.158Z,0.90
2022-10-16T13:44:40.630Z,0.90
2022-10-16T13:47:07.047Z,0.97
2022-10-16T13:49:33.585Z,1.10
2022-10-16T13:52:00.648Z,1.30
2022-10-16T13:54:29.703Z,1.10
2022-10-16T13:57:03.404Z,0.93
2022-10-16T13:59:36.532Z,1.20
2022-10-16T14:02:09.433Z,1.70
2022-10-16T14:04:39.491Z,2.23
2022-10-16T14:07:06.031Z,2.60
2022-10-16T14:09:32.846Z,3.93
2022-10-16T14:12:01.045Z,4.47
2022-10-16T14:14:51.189Z,3.47
2022-10-16T14:17:27.899Z,1.50
2022-10-16T14:19:59.540Z,1.80
2022-10-16T14:22:31.480Z,1.23
2022-10-16T14:24:57.893Z,1.30
2022-10-16T14:27:27.154Z,1.37
2022-10-16T14:30:06.879Z,1.50
2022-10-16T14:32:33.329Z,1.43
2022-10-16T14:34:59.763Z,1.40
2022-10-16T14:37:28.211Z,1.80
2022-10-16T14:39:55.632Z,1.63
2022-10-16T14:42:25.294Z,1.43
2022-10-16T14:44:55.446Z,1.57
2022-10-16T14:47:27.659Z,1.57
2022-10-16T14:49:59.980Z,1.80
2022-10-16T14:52:26.608Z,1.33
2022-10-16T14:54:55.770Z,1.23
2022-10-16T14:57:24.920Z,1.40
2022-10-16T14:59:54.824Z,1.20
2022-10-16T15:02:37.646Z,1.70
2022-10-16T15:05:18.899Z,1.60
2022-10-16T15:07:46.408Z,1.30
2022-10-16T15:10:13.950Z,1.67
2022-10-16T15:12:40.844Z,1.40
2022-10-16T15:15:22.457Z,1.50
2022-10-16T15:17:49.162Z,1.47
2022-10-16T15:20:15.568Z,1.67
2022-10-16T15:22:42.193Z,1.67
2022-10-16T15:25:28.427Z,1.27
2022-10-16T15:27:54.926Z,1.27
2022-10-16T15:30:21.470Z,1.37
2022-10-16T15:32:47.894Z,1.60
2022-10-16T15:35:14.348Z,1.50
2022-10-16T15:37:40.744Z,1.63
2022-10-16T15:40:07.520Z,1.27
2022-10-16T15:42:33.909Z,1.23
2022-10-16T15:45:00.327Z,1.20
2022-10-16T15:47:26.869Z,1.40
2022-10-16T15:49:53.302Z,1.13
2022-10-16T15:52:19.728Z,1.00
2022-10-16T15:54:50.507Z,1.17
2022-10-16T15:57:20.150Z,1.30
2022-10-16T15:59:46.627Z,1.00
2022-10-16T16:02:13.150Z,1.43
2022-10-16T16:04:43.908Z,1.20
2022-10-16T16:07:11.278Z,1.10
2022-10-16T16:09:37.794Z,1.20
2022-10-16T16:12:04.673Z,1.40
2022-10-16T16:14:31.161Z,1.27
2022-10-16T16:16:58.177Z,1.70
2022-10-16T16:19:24.628Z,1.50
2022-10-16T16:21:51.440Z,1.60
2022-10-16T16:24:17.894Z,1.70
2022-10-16T16:26:44.581Z,1.60
2022-10-16T16:29:14.778Z,1.47
2022-10-16T16:31:41.550Z,1.67
2022-10-16T16:34:08.358Z,1.53
2022-10-16T16:36:35.268Z,1.47
2022-10-16T16:39:01.935Z,1.40
2022-10-16T16:41:29.584Z,1.70
2022-10-16T16:43:56.068Z,1.60
2022-10-16T16:46:22.999Z,1.70
2022-10-16T16:48:51.346Z,1.50
2022-10-16T16:51:20.404Z,1.50
2022-10-16T16:53:47.936Z,1.60
2022-10-16T16:56:14.696Z,1.87
2022-10-16T16:58:41.377Z,1.93
2022-10-16T17:01:25.739Z,2.27
2022-10-16T17:03:53.278Z,2.07
2022-10-16T17:06:20.951Z,2.40
2022-10-16T17:08:47.855Z,2.43
2022-10-16T17:11:15.702Z,2.07
2022-10-16T17:13:42.384Z,2.23
2022-10-16T17:16:09.507Z,2.10
2022-10-16T17:18:36.215Z,2.53
2022-10-16T17:21:04.411Z,2.47
2022-10-16T17:23:30.939Z,2.83
2022-10-16T17:25:57.547Z,3.43
2022-10-16T17:28:24.208Z,2.80
2022-10-16T17:30:50.650Z,2.80
2022-10-16T17:33:17.084Z,2.77
2022-10-16T17:35:44.890Z,2.80
2022-10-16T17:38:12.213Z,3.10
2022-10-16T17:40:38.794Z,3.03
2022-10-16T17:43:05.219Z,7.37
2022-10-16T17:45:32.226Z,10.63
2022-10-16T17:47:58.912Z,9.70
2022-10-16T17:50:25.494Z,8.50
2022-10-16T17:52:52.005Z,7.33
2022-10-16T17:55:18.437Z,5.83
2022-10-16T17:57:44.839Z,7.53
2022-10-16T18:00:11.809Z,7.10
2022-10-16T18:02:42.178Z,6.43
2022-10-16T18:05:09.757Z,7.87
2022-10-16T18:07:36.194Z,6.87
2022-10-16T18:10:11.654Z,7.03
2022-10-16T18:12:38.740Z,7.33
2022-10-16T18:15:05.495Z,6.70
2022-10-16T18:17:33.850Z,7.33
2022-10-16T18:20:00.437Z,6.27
2022-10-16T18:22:27.485Z,6.87
2022-10-16T18:24:53.879Z,8.20
2022-10-16T18:27:21.120Z,7.73
2022-10-16T18:29:47.600Z,7.43
2022-10-16T18:32:14.010Z,6.77
2022-10-16T18:34:40.475Z,7.67
2022-10-16T18:37:07.007Z,8.07
2022-10-16T18:39:33.455Z,8.00
2022-10-16T18:42:00.375Z,7.47
2022-10-16T18:44:27.539Z,7.00
2022-10-16T18:46:57.076Z,6.03
2022-10-16T18:49:26.324Z,6.47
2022-10-16T18:51:56.408Z,5.93
2022-10-16T18:54:23.709Z,6.03
2022-10-16T18:56:53.182Z,4.23
2022-10-16T18:59:19.712Z,3.80
2022-10-16T19:01:47.721Z,5.27
2022-10-16T19:04:15.626Z,4.90
2022-10-16T19:06:43.469Z,4.87
2022-10-16T19:09:10.518Z,5.10
2022-10-16T19:11:41.306Z,5.30
2022-10-16T19:14:08.763Z,5.33
2022-10-16T19:16:35.724Z,7.87
2022-10-16T19:19:03.847Z,7.27
2022-10-16T19:21:31.274Z,9.70
2022-10-16T19:24:01.646Z,8.60
2022-10-16T19:26:28.879Z,8.43
2022-10-16T19:28:55.896Z,7.13
2022-10-16T19:31:23.115Z,7.23
2022-10-16T19:33:53.293Z,7.00
2022-10-16T19:36:23.683Z,5.13
2022-10-16T19:38:53.409Z,4.47
2022-10-16T19:41:20.266Z,4.00
2022-10-16T19:43:46.969Z,4.00
2022-10-16T19:46:14.908Z,4.27
2022-10-16T19:48:41.504Z,3.33
2022-10-16T19:51:10.760Z,3.60
2022-10-16T19:53:37.318Z,3.67
2022-10-16T19:56:11.523Z,3.93
2022-10-16T19:58:38.170Z,4.50
2022-10-16T20:01:04.671Z,3.90
2022-10-16T20:03:31.185Z,3.83
2022-10-16T20:05:58.307Z,3.50
2022-10-16T20:08:24.794Z,3.80
2022-10-16T20:10:52.443Z,4.00
2022-10-16T20:13:19.697Z,3.73
2022-10-16T20:15:46.642Z,3.77
2022-10-16T20:18:13.670Z,3.60
2022-10-16T20:20:40.911Z,3.50
2022-10-16T20:23:07.863Z,3.47
2022-10-16T20:25:35.171Z,3.13
2022-10-16T20:28:01.687Z,3.50
2022-10-16T20:30:28.169Z,3.77
2022-10-16T20:32:56.697Z,3.57
2022-10-16T20:35:23.117Z,3.53
2022-10-16T20:37:50.646Z,3.00
2022-10-16T20:40:17.307Z,4.87
2022-10-16T20:42:43.691Z,3.67
2022-10-16T20:45:10.275Z,3.80
2022-10-16T20:47:37.136Z,3.53
2022-10-16T20:50:03.895Z,4.27
2022-10-16T20:52:34.042Z,3.40
2022-10-16T20:55:00.440Z,3.27
2022-10-16T20:57:27.153Z,4.23
2022-10-16T20:59:55.649Z,4.10
2022-10-16T21:04:54.612Z,3.80
2022-10-16T21:07:21.106Z,3.80
2022-10-16T21:09:47.531Z,4.70
2022-10-16T21:12:14.105Z,3.80
2022-10-16T21:14:46.498Z,4.50
2022-10-16T21:17:22.990Z,4.17
2022-10-16T21:19:49.511Z,4.27
2022-10-16T21:22:15.968Z,4.23
2022-10-16T21:24:42.562Z,4.00
2022-10-16T21:27:09.078Z,4.33
2022-10-16T21:29:35.575Z,4.30
2022-10-16T21:32:02.123Z,4.30
2022-10-16T21:34:28.589Z,4.23
2022-10-16T21:36:55.012Z,4.63
2022-10-16T21:43:10.808Z,4.90
2022-10-16T21:45:37.215Z,4.60
2022-10-16T21:48:03.734Z,5.00
2022-10-16T21:50:30.123Z,4.80
2022-10-16T21:52:56.640Z,4.70
2022-10-16T21:55:23.130Z,4.37
2022-10-16T21:57:49.610Z,5.35
2022-10-16T22:00:16.115Z,4.30
2022-10-16T22:02:42.598Z,5.53
2022-10-16T22:05:09.444Z,5.47
2022-10-16T22:07:35.943Z,4.47
2022-10-16T22:10:02.433Z,4.93
2022-10-16T22:12:29.111Z,4.90
2022-10-16T22:14:55.577Z,4.83
2022-10-16T22:17:22.036Z,5.27
2022-10-16T22:19:48.507Z,5.20
2022-10-16T22:22:14.935Z,5.50
2022-10-16T22:24:41.531Z,5.33
2022-10-16T22:27:08.011Z,5.20
2022-10-16T22:29:34.453Z,5.30
2022-10-16T22:32:00.948Z,5.43
2022-10-16T22:34:29.220Z,5.30
2022-10-16T22:36:55.703Z,5.53
2022-10-16T22:39:22.192Z,5.30
2022-10-16T22:41:48.664Z,5.77
2022-10-16T22:44:15.142Z,5.00
2022-10-16T22:46:41.721Z,5.80
2022-10-16T22:49:08.181Z,6.30
2022-10-16T22:51:34.678Z,5.60
2022-10-16T22:54:01.233Z,5.40
2022-10-16T22:56:27.799Z,5.10
2022-10-16T22:58:54.425Z,5.37
2022-10-16T23:01:28.773Z,5.50
2022-10-16T23:03:55.709Z,5.63
2022-10-16T23:06:22.129Z,4.77
2022-10-16T23:08:52.618Z,5.50
2022-10-16T23:11:19.141Z,5.40
2022-10-16T23:13:45.728Z,5.50
2022-10-16T23:16:13.884Z,9.90
2022-10-16T23:18:40.743Z,12.37
2022-10-16T23:21:08.369Z,9.23
2022-10-16T23:23:35.785Z,7.70
2022-10-16T23:26:02.638Z,6.90
2022-10-16T23:28:29.273Z,6.63
2022-10-16T23:30:55.753Z,5.90
2022-10-16T23:33:22.158Z,6.30
2022-10-16T23:36:16.646Z,6.00
2022-10-16T23:38:43.541Z,6.13
2022-10-16T23:41:10.377Z,5.83
2022-10-16T23:43:36.766Z,5.87
2022-10-16T23:46:03.571Z,5.50
2022-10-16T23:48:30.485Z,5.33
2022-10-16T23:50:57.065Z,5.97
2022-10-16T23:53:23.531Z,5.90
2022-10-16T23:55:49.920Z,5.50
2022-10-16T23:58:16.583Z,5.93
